Time;durP1;ratioP1;P1;durP2;ratioP2;P2;SDS_P1;SDS_P2;PMS_P1;PMS_P2;Temp;Humidity;BMP_temperature;BMP_pressure;BME280_temperature;BME280_humidity;BME280_pressure;Samples;Min_cycle;Max_cycle;Signal;HPM_P1;HPM_P2
2022/06/13 00:02:05;;;;;;;13.23;4.85;;;;;;;13.84;70.00;101842.31;3601024;39;20404;-65
2022/06/13 00:04:31;;;;;;;9.02;4.57;;;;;;;13.82;69.82;101834.28;3598999;39;20048;-65
2022/06/13 00:06:56;;;;;;;12.70;4.88;;;;;;;13.83;69.87;101827.09;3600121;39;20056;-66
2022/06/13 00:09:22;;;;;;;10.85;4.70;;;;;;;13.79;69.64;101828.19;3597963;39;20456;-65
2022/06/13 00:11:48;;;;;;;9.23;4.80;;;;;;;13.75;70.73;101829.34;3599417;39;20639;-64
2022/06/13 00:14:14;;;;;;;9.65;4.65;;;;;;;13.74;70.83;101822.22;3598618;39;20048;-65
2022/06/13 00:16:39;;;;;;;11.88;4.68;;;;;;;13.45;70.39;101781.56;3599549;39;20064;-65
2022/06/13 00:19:05;;;;;;;10.40;5.18;;;;;;;13.74;70.47;101827.63;3600528;39;20124;-65
2022/06/13 00:21:35;;;;;;;11.02;5.03;;;;;;;13.73;70.97;101821.31;3598131;39;20096;-64
2022/06/13 00:24:05;;;;;;;10.13;4.80;;;;;;;13.73;70.82;101815.06;3602339;39;20059;-66
2022/06/13 00:26:34;;;;;;;11.60;4.80;;;;;;;13.69;70.57;101808.97;3599948;39;20107;-65
2022/06/13 00:29:01;;;;;;;12.23;5.03;;;;;;;13.65;71.45;101808.28;3601051;39;20062;-66
2022/06/13 00:31:27;;;;;;;14.73;5.22;;;;;;;13.62;71.40;101813.00;3602698;39;20054;-65
2022/06/13 00:33:53;;;;;;;7.70;4.72;;;;;;;13.67;70.95;101806.38;3601539;39;20355;-65
2022/06/13 00:36:23;;;;;;;10.90;5.30;;;;;;;13.77;70.93;101808.53;3597235;39;20052;-64
2022/06/13 00:38:55;;;;;;;12.50;5.30;;;;;;;13.81;70.63;101810.06;3600454;39;20294;-64
2022/06/13 00:41:26;;;;;;;16.23;5.50;;;;;;;13.81;70.83;101796.56;3597493;39;20088;-65
2022/06/13 00:43:55;;;;;;;14.70;5.43;;;;;;;13.89;70.34;101800.56;3600298;39;20050;-65
2022/06/13 00:46:32;;;;;;;19.45;5.93;;;;;;;13.92;70.01;101807.56;3597557;39;20450;-66
2022/06/13 00:49:06;;;;;;;18.15;5.72;;;;;;;13.96;70.15;101801.06;3600063;39;20052;-65
2022/06/13 00:51:42;;;;;;;12.88;5.63;;;;;;;13.99;70.26;101798.16;3599887;39;20059;-65
2022/06/13 00:54:07;;;;;;;17.77;5.47;;;;;;;13.68;69.99;101742.38;3598252;39;20065;-66
2022/06/13 00:56:37;;;;;;;10.55;5.00;;;;;;;14.04;69.82;101793.31;3596759;39;20067;-64
2022/06/13 00:59:11;;;;;;;13.10;5.65;;;;;;;14.13;70.16;101809.00;3598386;39;20057;-65
2022/06/13 01:01:37;;;;;;;13.93;5.60;;;;;;;14.19;70.39;101802.34;3598742;39;20125;-65
2022/06/13 01:04:07;;;;;;;13.35;5.70;;;;;;;14.27;69.93;101804.56;3598056;39;20063;-64
2022/06/13 01:06:42;;;;;;;12.57;5.32;;;;;;;14.30;70.41;101804.38;3602186;39;20359;-65
2022/06/13 01:09:13;;;;;;;15.70;5.53;;;;;;;14.37;69.28;101806.63;3599030;39;20047;-64
2022/06/13 01:11:50;;;;;;;16.88;6.00;;;;;;;14.43;68.91;101799.06;3595754;39;20088;-64
2022/06/13 01:14:34;;;;;;;14.63;6.38;;;;;;;14.44;69.63;101800.84;3599751;39;20089;-66
2022/06/13 01:17:38;;;;;;;16.55;5.95;;;;;;;14.43;69.40;101802.66;3598173;39;20140;-64
2022/06/13 01:20:40;;;;;;;15.63;6.22;;;;;;;14.45;69.06;101803.44;3598501;39;20051;-64
2022/06/13 01:23:56;;;;;;;17.92;6.53;;;;;;;14.46;69.09;101805.19;3601408;39;20058;-66
2022/06/13 01:26:52;;;;;;;17.50;6.75;;;;;;;14.52;69.76;101790.41;3596819;39;20372;-64
2022/06/13 01:29:50;;;;;;;14.10;6.72;;;;;;;14.55;69.61;101787.50;3597056;39;20086;-64
2022/06/13 01:32:36;;;;;;;23.92;6.65;;;;;;;14.54;69.57;101802.88;3597819;39;20082;-63
2022/06/13 01:35:47;;;;;;;13.95;6.20;;;;;;;14.56;69.00;101790.13;3598544;39;20055;-65
2022/06/13 01:38:40;;;;;;;12.20;6.18;;;;;;;14.57;69.16;101783.75;3599648;39;20103;-64
2022/06/13 01:41:39;;;;;;;20.30;7.10;;;;;;;14.55;68.90;101782.97;3598290;39;20043;-64
2022/06/13 01:44:20;;;;;;;13.48;6.55;;;;;;;14.58;68.68;101776.50;3598723;39;20043;-63
2022/06/13 01:47:34;;;;;;;14.98;6.32;;;;;;;14.66;68.33;101776.91;3598471;39;20152;-64
2022/06/13 01:50:26;;;;;;;17.55;6.25;;;;;;;14.72;68.39;101783.75;3597686;39;20067;-65
2022/06/13 01:53:19;;;;;;;18.88;6.40;;;;;;;14.63;68.82;101768.97;3598000;39;20059;-65
2022/06/13 01:56:02;;;;;;;14.97;6.57;;;;;;;14.75;69.30;101786.28;3597058;39;20059;-63
2022/06/13 01:58:44;;;;;;;14.70;6.10;;;;;;;14.76;68.79;101786.16;3597695;39;20092;-65
2022/06/13 02:01:37;;;;;;;19.42;5.93;;;;;;;14.79;68.10;101780.53;3597757;39;21519;-64
2022/06/13 02:04:23;;;;;;;22.33;6.80;;;;;;;14.78;68.69;101791.47;3596842;39;20104;-64
2022/06/13 02:07:04;;;;;;;22.35;6.72;;;;;;;14.79;68.27;101787.81;3598408;39;20062;-64
2022/06/13 02:09:59;;;;;;;17.23;6.40;;;;;;;14.80;68.36;101787.69;3598329;39;20044;-64
2022/06/13 02:12:33;;;;;;;13.30;6.05;;;;;;;14.49;68.32;101723.81;3598210;39;20051;-63
2022/06/13 02:15:28;;;;;;;20.05;6.72;;;;;;;14.91;67.87;101783.44;3598317;39;20051;-64
2022/06/13 02:18:03;;;;;;;13.75;6.20;;;;;;;14.94;67.78;101788.63;3599130;39;20096;-63
2022/06/13 02:20:39;;;;;;;14.15;6.32;;;;;;;14.99;68.00;101789.22;3597917;39;20391;-67
2022/06/13 02:23:12;;;;;;;16.08;6.45;;;;;;;15.04;67.38;101784.38;3596114;39;20127;-64
2022/06/13 02:25:59;;;;;;;11.45;6.18;;;;;;;15.08;67.11;101794.91;3596266;39;20044;-64
2022/06/13 02:28:47;;;;;;;12.80;5.93;;;;;;;15.13;66.99;101791.91;3596212;39;20055;-65
2022/06/13 02:31:33;;;;;;;14.55;6.50;;;;;;;15.06;67.03;101772.47;3598919;39;20409;-64
2022/06/13 02:34:11;;;;;;;15.25;6.35;;;;;;;15.21;66.90;101785.97;3598409;39;20280;-65
2022/06/13 02:36:45;;;;;;;13.60;6.65;;;;;;;15.22;66.47;101787.69;3593817;39;20057;-65
2022/06/13 02:39:27;;;;;;;12.52;6.78;;;;;;;15.25;66.15;101795.63;3598068;39;20077;-66
2022/06/13 02:42:23;;;;;;;16.27;7.15;;;;;;;15.27;66.38;101790.97;3594840;39;20395;-66
2022/06/13 02:45:26;;;;;;;18.08;7.05;;;;;;;15.26;67.01;101781.13;3600587;39;20094;-64
2022/06/13 02:48:06;;;;;;;15.23;6.50;;;;;;;15.26;66.66;101770.28;3599557;39;20097;-66
2022/06/13 02:50:54;;;;;;;14.45;6.65;;;;;;;15.23;66.83;101770.50;3598526;39;20043;-65
2022/06/13 02:53:41;;;;;;;13.35;6.57;;;;;;;15.05;67.17;101748.19;3601929;39;20392;-66
2022/06/13 02:56:18;;;;;;;10.65;6.38;;;;;;;15.18;67.27;101780.75;3598828;39;20070;-65
2022/06/13 02:59:13;;;;;;;12.20;6.20;;;;;;;15.20;67.00;101781.53;3598575;39;20058;-65
2022/06/13 03:01:46;;;;;;;14.38;7.55;;;;;;;15.09;67.39;101771.38;3601900;39;20067;-65
2022/06/13 03:04:40;;;;;;;14.20;6.65;;;;;;;15.15;67.42;101778.25;3602384;39;20064;-65
2022/06/13 03:07:31;;;;;;;12.88;6.40;;;;;;;15.11;67.53;101776.72;3599719;39;20104;-65
2022/06/13 03:10:14;;;;;;;14.02;7.47;;;;;;;15.05;67.99;101773.44;3598468;39;20055;-65
2022/06/13 03:13:08;;;;;;;15.60;7.10;;;;;;;15.01;68.13;101779.16;3599558;39;20047;-66
2022/06/13 03:15:53;;;;;;;15.18;7.50;;;;;;;14.97;68.71;101777.59;3596149;39;20057;-65
2022/06/13 03:18:32;;;;;;;11.70;6.85;;;;;;;14.95;68.70;101787.69;3602248;39;20051;-67
2022/06/13 03:21:17;;;;;;;16.23;7.38;;;;;;;14.94;69.14;101789.53;3599329;39;20128;-66
2022/06/13 03:23:57;;;;;;;12.75;7.13;;;;;;;14.86;68.81;101779.16;3599482;39;20043;-65
2022/06/13 03:26:37;;;;;;;16.58;7.40;;;;;;;14.99;68.87;101786.50;3589840;39;20055;-65
2022/06/13 03:29:27;;;;;;;12.77;6.57;;;;;;;14.99;69.03;101784.66;3599471;39;20336;-65
2022/06/13 03:32:03;;;;;;;13.57;7.20;;;;;;;14.99;68.90;101787.38;3601090;39;20071;-65
2022/06/13 03:34:39;;;;;;;14.20;6.78;;;;;;;14.95;69.37;101788.53;3599591;39;20289;-67
2022/06/13 03:37:40;;;;;;;16.52;7.72;;;;;;;14.96;68.88;101782.16;3598072;39;20066;-66
2022/06/13 03:40:27;;;;;;;18.30;7.28;;;;;;;14.82;68.96;101780.34;3598326;39;20050;-65
2022/06/13 03:43:13;;;;;;;17.40;7.28;;;;;;;14.87;69.15;101793.56;3601084;39;20486;-66
2022/06/13 03:45:51;;;;;;;17.67;7.70;;;;;;;14.85;69.37;101800.94;3598777;39;20498;-65
2022/06/13 03:48:28;;;;;;;15.85;7.68;;;;;;;14.79;69.61;101798.63;3598851;39;20153;-64
2022/06/13 03:51:08;;;;;;;14.73;7.05;;;;;;;14.82;69.74;101799.28;3599095;39;20066;-65
2022/06/13 03:54:03;;;;;;;16.55;7.40;;;;;;;14.79;69.74;101801.34;3596180;39;20059;-66
2022/06/13 03:56:42;;;;;;;12.32;7.18;;;;;;;14.75;70.08;101802.50;3597633;39;20064;-66
2022/06/13 03:59:18;;;;;;;17.10;7.22;;;;;;;14.73;70.16;101807.13;3603144;39;20404;-65
2022/06/13 04:01:53;;;;;;;17.63;7.70;;;;;;;14.69;70.46;101803.75;3601395;39;20056;-65
2022/06/13 04:04:27;;;;;;;15.55;7.38;;;;;;;14.68;70.41;101806.56;3600108;39;20060;-65
2022/06/13 04:06:56;;;;;;;16.17;7.80;;;;;;;14.62;70.31;101800.56;3600540;39;20970;-65
2022/06/13 04:09:37;;;;;;;16.83;8.15;;;;;;;14.47;70.62;101789.81;3600254;39;20294;-65
2022/06/13 04:12:20;;;;;;;15.63;8.15;;;;;;;14.54;70.86;101802.88;3600123;39;20104;-65
2022/06/13 04:15:17;;;;;;;15.82;7.32;;;;;;;14.55;71.29;101799.19;3602500;39;20305;-65
2022/06/13 04:18:08;;;;;;;15.43;7.72;;;;;;;14.52;71.21;101815.63;3601382;39;20055;-65
2022/06/13 04:21:00;;;;;;;17.85;7.95;;;;;;;14.52;71.54;101807.50;3600100;39;20413;-66
2022/06/13 04:23:35;;;;;;;16.30;7.95;;;;;;;14.51;70.95;101816.59;3600664;39;20051;-65
2022/06/13 04:26:26;;;;;;;15.18;7.65;;;;;;;14.47;71.96;101816.88;3601188;39;20051;-66
2022/06/13 04:29:07;;;;;;;17.65;7.78;;;;;;;14.43;72.03;101827.03;3599524;39;20128;-65
2022/06/13 04:31:36;;;;;;;15.85;7.93;;;;;;;14.42;71.75;101825.25;3598451;39;20070;-66
2022/06/13 04:34:12;;;;;;;20.17;9.02;;;;;;;14.42;72.02;101825.25;3601197;39;20051;-65
2022/06/13 04:36:39;;;;;;;16.67;8.60;;;;;;;14.44;72.26;101823.34;3598084;39;20051;-65
2022/06/13 04:39:13;;;;;;;16.80;8.20;;;;;;;14.46;72.04;101821.41;3599953;39;20681;-65
2022/06/13 04:41:45;;;;;;;19.48;8.10;;;;;;;14.51;72.07;101826.56;3600290;39;20487;-65
2022/06/13 04:44:20;;;;;;;17.05;8.27;;;;;;;14.55;72.31;101828.97;3601508;39;20047;-65
2022/06/13 04:46:50;;;;;;;13.45;7.70;;;;;;;14.64;71.82;101832.94;3601041;39;20136;-65
2022/06/13 04:49:32;;;;;;;18.13;8.68;;;;;;;14.73;71.99;101835.06;3600073;39;20083;-65
2022/06/13 04:52:06;;;;;;;15.70;8.65;;;;;;;14.79;71.96;101828.41;3600731;39;20062;-65
2022/06/13 04:54:46;;;;;;;15.23;7.78;;;;;;;14.82;71.93;101831.78;3599506;39;20068;-65
2022/06/13 04:57:17;;;;;;;18.33;8.70;;;;;;;14.90;72.25;101842.09;3601568;39;20071;-65
2022/06/13 04:59:45;;;;;;;17.45;8.90;;;;;;;14.97;71.79;101843.47;3600739;39;20998;-65
2022/06/13 05:02:22;;;;;;;17.13;8.45;;;;;;;15.04;72.41;101839.41;3601588;39;20328;-65
2022/06/13 05:04:48;;;;;;;17.70;8.88;;;;;;;15.14;71.90;101850.50;3601645;39;20044;-65
2022/06/13 05:07:21;;;;;;;14.70;8.75;;;;;;;15.19;72.12;101848.38;3601637;39;20059;-65
2022/06/13 05:10:16;;;;;;;18.30;9.32;;;;;;;15.26;71.93;101846.16;3601240;39;20059;-64
2022/06/13 05:12:44;;;;;;;18.58;9.50;;;;;;;15.32;71.71;101849.31;3597966;39;20056;-66
2022/06/13 05:15:32;;;;;;;16.48;8.93;;;;;;;15.36;71.66;101849.13;3603076;39;20054;-68
2022/06/13 05:18:10;;;;;;;18.23;8.88;;;;;;;15.42;72.16;101855.00;3600280;39;20161;-66
2022/06/13 05:21:19;;;;;;;24.45;9.68;;;;;;;15.44;71.78;101853.03;3601292;39;20074;-66
2022/06/13 05:24:32;;;;;;;19.20;9.07;;;;;;;15.51;72.03;101864.38;3600226;39;20087;-66
2022/06/13 05:26:57;;;;;;;17.50;9.40;;;;;;;15.58;71.41;101864.84;3599220;39;20316;-66
2022/06/13 05:29:25;;;;;;;19.58;9.90;;;;;;;15.64;71.75;101869.84;3598188;39;20051;-65
2022/06/13 05:31:53;;;;;;;24.08;10.88;;;;;;;15.70;71.28;101864.06;3598495;39;20087;-66
2022/06/13 05:34:33;;;;;;;19.38;9.57;;;;;;;15.76;71.22;101867.22;3600472;39;20389;-66
2022/06/13 05:37:01;;;;;;;18.73;9.50;;;;;;;15.84;71.28;101863.97;3599438;39;22073;-66
2022/06/13 05:39:28;;;;;;;19.92;9.15;;;;;;;15.92;71.57;101864.34;3600176;39;20056;-66
2022/06/13 05:41:54;;;;;;;17.45;9.70;;;;;;;16.00;71.41;101871.94;3603537;39;20050;-66
2022/06/13 05:44:19;;;;;;;16.70;8.98;;;;;;;16.10;71.32;101873.03;3600345;39;20043;-64
2022/06/13 05:46:45;;;;;;;17.08;8.63;;;;;;;16.19;69.98;101879.69;3599431;39;20113;-66
2022/06/13 05:49:13;;;;;;;16.90;8.57;;;;;;;16.29;69.70;101886.22;3601868;39;20062;-64
2022/06/13 05:51:41;;;;;;;19.13;8.63;;;;;;;16.41;69.12;101885.38;3599055;39;20311;-64
2022/06/13 05:54:09;;;;;;;20.45;8.48;;;;;;;16.53;68.71;101880.06;3603364;39;20055;-64
2022/06/13 05:56:36;;;;;;;19.15;8.13;;;;;;;16.63;68.55;101879.31;3600259;39;20063;-67
2022/06/13 05:59:02;;;;;;;20.15;8.65;;;;;;;16.74;68.68;101885.81;3601099;39;20071;-65
2022/06/13 06:01:28;;;;;;;20.30;8.50;;;;;;;16.82;67.90;101897.06;3599301;39;20063;-64
2022/06/13 06:03:54;;;;;;;19.20;8.55;;;;;;;16.89;67.20;101899.22;3603211;39;20063;-64
2022/06/13 06:06:27;;;;;;;16.23;8.00;;;;;;;16.99;66.76;101907.56;3602876;39;20036;-65
2022/06/13 06:08:54;;;;;;;;;;;;;;;17.04;67.25;101902.69;3601831;39;20059;-65
2022/06/13 06:11:24;;;;;;;17.75;8.00;;;;;;;17.06;67.53;101905.28;3597470;39;19932;-65
2022/06/13 06:13:49;;;;;;;20.83;8.40;;;;;;;17.11;67.36;101903.09;3597573;39;20044;-64
2022/06/13 06:16:20;;;;;;;20.67;8.43;;;;;;;17.00;67.22;101878.53;3600051;39;20081;-65
2022/06/13 06:18:47;;;;;;;23.92;8.80;;;;;;;17.25;66.59;101911.09;3600540;39;20054;-65
2022/06/13 06:21:13;;;;;;;21.23;8.13;;;;;;;17.24;66.18;101903.94;3598345;39;20059;-64
2022/06/13 06:23:38;;;;;;;21.05;8.05;;;;;;;17.32;65.21;101912.44;3598639;39;20125;-66
2022/06/13 06:26:07;;;;;;;14.98;6.90;;;;;;;17.34;65.40;101909.56;3598546;39;20058;-65
2022/06/13 06:28:34;;;;;;;17.75;6.47;;;;;;;17.49;64.08;101913.03;3597573;39;20087;-65
2022/06/13 06:31:01;;;;;;;12.13;5.93;;;;;;;17.53;63.54;101915.41;3600168;39;22465;-67
2022/06/13 06:33:28;;;;;;;14.00;6.10;;;;;;;17.59;62.72;101928.53;3600128;39;20057;-65
2022/06/13 06:35:54;;;;;;;16.83;5.97;;;;;;;17.58;62.58;101906.91;3599315;39;20052;-65
2022/06/13 06:38:23;;;;;;;14.75;5.85;;;;;;;17.45;61.67;101881.63;3598307;39;20087;-65
2022/06/13 06:40:49;;;;;;;14.73;5.03;;;;;;;17.68;61.29;101929.72;3599674;39;20430;-65
2022/06/13 06:43:14;;;;;;;14.45;5.57;;;;;;;17.60;60.92;101932.13;3599365;39;20052;-67
2022/06/13 06:45:44;;;;;;;12.77;5.18;;;;;;;17.56;59.81;101941.50;3597845;39;20051;-65
2022/06/13 06:48:26;;;;;;;11.75;4.05;;;;;;;17.63;59.91;101940.06;3601595;39;20051;-68
2022/06/13 06:50:52;;;;;;;12.20;3.53;;;;;;;17.58;59.29;101896.03;3638211;22;20047;-63
2022/06/13 06:53:23;;;;;;;12.32;3.35;;;;;;;18.10;57.79;101943.81;3578325;40;20040;-63
2022/06/13 07:01:22;;;;;;;9.98;3.20;;;;;;;18.83;54.14;101942.75;3569598;40;20119;-63
2022/06/13 07:03:47;;;;;;;5.97;2.78;;;;;;;18.81;53.39;101946.56;3567700;40;20146;-63
2022/06/13 07:06:15;;;;;;;11.10;3.20;;;;;;;18.63;52.59;101952.44;3568464;40;20663;-62
2022/06/13 07:08:42;;;;;;;11.70;3.28;;;;;;;18.66;52.95;101938.59;3570014;40;20063;-62
2022/06/13 07:14:10;;;;;;;7.75;2.10;;;;;;;18.88;51.42;101923.31;3569992;40;20110;-63
2022/06/13 07:16:36;;;;;;;11.38;3.03;;;;;;;19.21;50.87;101947.00;3571374;40;20376;-63
2022/06/13 07:19:01;;;;;;;7.07;2.38;;;;;;;19.41;51.23;101950.81;3568991;40;20101;-63
2022/06/13 07:21:27;;;;;;;10.27;2.72;;;;;;;19.52;49.33;101942.63;3569128;40;20055;-63
2022/06/13 07:23:53;;;;;;;9.80;2.67;;;;;;;19.62;49.13;101951.78;3568633;40;20052;-63
2022/06/13 07:26:18;;;;;;;6.82;2.13;;;;;;;19.84;47.57;101955.50;3568818;40;20123;-63
2022/06/13 07:28:44;;;;;;;7.70;2.50;;;;;;;19.85;48.43;101939.03;3569192;40;20046;-63
2022/06/13 07:31:20;;;;;;;7.80;2.17;;;;;;;20.22;47.99;101965.09;3570843;40;20068;-63
2022/06/13 07:33:49;;;;;;;9.25;2.40;;;;;;;20.47;46.20;101961.13;3568657;40;20061;-63
2022/06/13 07:36:17;;;;;;;7.90;2.72;;;;;;;20.52;46.98;101953.41;3570160;40;20049;-63
2022/06/13 07:38:42;;;;;;;9.40;2.95;;;;;;;20.68;47.63;101961.16;3570106;40;20079;-64
2022/06/13 07:41:18;;;;;;;6.47;2.13;;;;;;;20.75;46.64;101956.91;3570156;40;20427;-63
2022/06/13 07:43:45;;;;;;;6.95;2.63;;;;;;;20.89;46.33;101967.50;3572536;40;20053;-63
2022/06/13 07:46:12;;;;;;;9.20;2.72;;;;;;;21.03;46.30;101964.44;3569232;40;20114;-63
2022/06/13 07:48:38;;;;;;;8.27;2.70;;;;;;;20.82;45.46;101971.78;3569566;40;20049;-63
2022/06/13 07:51:05;;;;;;;7.20;2.50;;;;;;;20.83;45.23;101966.16;3570434;40;20069;-62
2022/06/13 07:53:33;;;;;;;9.23;2.63;;;;;;;20.88;45.72;101975.84;3570184;40;20063;-63
2022/06/13 07:55:59;;;;;;;8.07;2.83;;;;;;;20.89;46.21;101966.63;3567808;40;20296;-62
2022/06/13 07:58:37;;;;;;;6.72;3.00;;;;;;;21.07;43.94;101978.69;3568220;40;20407;-64
2022/06/13 08:01:05;;;;;;;10.70;2.83;;;;;;;21.05;44.87;101967.00;3568272;40;20061;-63
2022/06/13 08:03:34;;;;;;;6.15;2.60;;;;;;;21.21;45.38;101969.25;3569701;40;20446;-63
2022/06/13 08:06:02;;;;;;;10.30;2.88;;;;;;;21.47;44.53;101977.91;3571394;40;20203;-62
2022/06/13 08:08:28;;;;;;;10.23;2.88;;;;;;;21.50;46.02;101972.16;3567743;40;20203;-62
2022/06/13 08:11:01;;;;;;;8.98;2.60;;;;;;;21.80;43.58;101979.47;3568138;40;20067;-63
2022/06/13 08:13:27;;;;;;;8.40;2.83;;;;;;;22.04;42.90;101998.22;3568304;40;20051;-63
2022/06/13 08:15:53;;;;;;;10.52;2.70;;;;;;;22.17;44.09;101992.53;3567709;40;20061;-63
2022/06/13 08:18:20;;;;;;;10.45;2.85;;;;;;;22.29;42.98;102004.22;3571427;40;20101;-63
2022/06/13 08:20:46;;;;;;;9.40;2.42;;;;;;;22.42;40.84;102005.69;3568493;40;20419;-64
2022/06/13 08:23:15;;;;;;;5.95;2.60;;;;;;;22.55;42.26;101996.28;3573096;40;20145;-63
2022/06/13 08:25:42;;;;;;;6.63;2.42;;;;;;;22.82;41.22;102004.66;3569392;40;20137;-63
2022/06/13 08:28:10;;;;;;;5.20;2.30;;;;;;;22.62;40.33;102003.81;3571207;40;20155;-63
2022/06/13 08:30:42;;;;;;;9.05;2.00;;;;;;;22.31;40.12;102013.19;3572269;40;20052;-63
2022/06/13 08:33:08;;;;;;;4.47;2.03;;;;;;;21.83;40.51;101998.34;3569124;40;20115;-63
2022/06/13 08:35:34;;;;;;;5.97;1.95;;;;;;;21.50;41.59;102005.88;3567749;40;20404;-64
2022/06/13 08:38:03;;;;;;;9.38;2.30;;;;;;;20.76;42.19;101937.63;3566861;40;20049;-63
2022/06/13 08:40:45;;;;;;;6.40;2.30;;;;;;;20.93;43.30;102010.00;3571932;40;20107;-63
2022/06/13 08:43:39;;;;;;;7.03;2.10;;;;;;;21.44;43.94;102017.38;3570305;40;20065;-63
2022/06/13 08:46:32;;;;;;;5.65;2.20;;;;;;;21.89;44.28;102019.69;3569255;40;20041;-63
2022/06/13 08:49:31;;;;;;;7.72;2.40;;;;;;;22.32;43.25;102018.50;3568266;40;20049;-64
2022/06/13 08:52:25;;;;;;;5.57;2.22;;;;;;;22.52;41.84;102007.53;3572360;40;20119;-63
2022/06/13 08:55:12;;;;;;;6.60;2.05;;;;;;;22.90;40.29;102015.78;3573841;40;20079;-64
2022/06/13 08:58:03;;;;;;;6.10;2.15;;;;;;;23.09;39.40;102027.72;3572395;40;20084;-63
2022/06/13 09:00:33;;;;;;;4.97;2.00;;;;;;;23.41;38.02;102016.41;3570578;40;20064;-64
2022/06/13 09:03:18;;;;;;;6.15;2.00;;;;;;;23.02;38.92;102021.09;3570912;40;20122;-64
2022/06/13 09:05:56;;;;;;;5.10;1.67;;;;;;;22.78;39.21;102024.28;3571436;40;20049;-63
2022/06/13 09:08:57;;;;;;;9.18;2.15;;;;;;;22.56;39.17;102025.47;3572869;40;20061;-63
2022/06/13 09:11:34;;;;;;;5.43;1.67;;;;;;;22.51;39.57;102033.22;3570196;40;20055;-63
2022/06/13 09:14:13;;;;;;;2.58;1.33;;;;;;;22.24;39.66;102037.53;3572306;40;20107;-64
2022/06/13 09:16:49;;;;;;;6.97;1.58;;;;;;;21.92;40.13;102030.38;3575324;40;20107;-63
2022/06/13 09:19:34;;;;;;;2.45;1.40;;;;;;;21.70;38.63;102045.13;3570989;40;20049;-62
2022/06/13 09:22:25;;;;;;;5.05;1.83;;;;;;;21.53;40.19;102052.13;3572409;40;20150;-63
2022/06/13 09:25:09;;;;;;;4.38;1.52;;;;;;;22.13;39.38;102051.31;3571774;40;20148;-63
2022/06/13 09:27:54;;;;;;;4.97;1.38;;;;;;;22.17;37.62;102039.09;3569669;40;20045;-63
2022/06/13 09:30:31;;;;;;;2.70;1.40;;;;;;;22.09;38.16;102055.34;3570022;40;20061;-63
2022/06/13 09:33:30;;;;;;;4.82;1.88;;;;;;;21.64;39.41;102028.41;3575177;40;20067;-63
2022/06/13 09:36:03;;;;;;;3.35;1.17;;;;;;;21.66;40.23;102049.16;3574110;40;20056;-63
2022/06/13 09:38:42;;;;;;;6.82;1.60;;;;;;;21.45;39.68;102056.53;3572086;40;20101;-63
2022/06/13 09:41:16;;;;;;;2.25;1.00;;;;;;;21.41;40.18;102069.63;3569595;40;20061;-63
2022/06/13 09:44:31;;;;;;;5.28;1.45;;;;;;;21.25;39.93;102066.44;3570631;40;20049;-63
2022/06/13 09:47:22;;;;;;;4.55;1.95;;;;;;;21.21;42.21;102067.72;3570262;40;20049;-63
2022/06/13 09:50:00;;;;;;;8.98;2.70;;;;;;;21.25;42.85;102078.28;3574868;40;20068;-63
2022/06/13 09:53:15;;;;;;;6.93;1.90;;;;;;;21.23;44.37;102076.66;3575797;40;20112;-63
2022/06/13 09:56:00;;;;;;;7.70;2.35;;;;;;;21.24;43.14;102071.03;3574075;40;20053;-63
2022/06/13 09:58:43;;;;;;;3.88;1.55;;;;;;;21.29;43.29;102078.88;3571409;40;20088;-63
2022/06/13 10:01:59;;;;;;;;;;;;;;;21.16;43.39;102083.69;3568717;40;20056;-63
2022/06/13 10:05:09;;;;;;;5.82;3.20;;;;;;;21.23;45.01;102073.94;3546835;40;19940;-63
2022/06/13 10:08:51;;;;;;;6.65;3.00;;;;;;;21.48;43.70;102079.00;3546973;40;20069;-63
2022/06/13 10:11:58;;;;;;;4.30;2.20;;;;;;;21.44;42.30;102088.50;3523601;40;20082;-63
2022/06/13 10:14:48;;;;;;;3.70;1.70;;;;;;;21.41;41.93;102088.75;3564516;40;20119;-63
2022/06/13 10:17:39;;;;;;;5.43;1.50;;;;;;;21.77;40.71;102086.50;3569659;40;20084;-63
2022/06/13 10:20:35;;;;;;;4.18;1.42;;;;;;;21.83;39.41;102082.34;3573272;40;20052;-63
2022/06/13 10:23:13;;;;;;;5.20;1.40;;;;;;;22.15;40.91;102076.69;3570924;40;20086;-63
2022/06/13 10:26:01;;;;;;;4.60;1.77;;;;;;;22.42;39.79;102074.19;3568514;40;20377;-63
2022/06/13 10:28:54;;;;;;;5.00;1.90;;;;;;;22.96;39.44;102082.88;3569105;40;20131;-64
2022/06/13 10:32:04;;;;;;;5.40;1.88;;;;;;;23.28;37.76;102076.19;3569028;40;20079;-63
2022/06/13 10:35:04;;;;;;;5.72;2.92;;;;;;;23.00;38.07;102070.63;3573025;40;20337;-63
2022/06/13 10:37:53;;;;;;;5.72;2.38;;;;;;;23.02;38.56;102084.19;3570616;40;20093;-64
2022/06/13 10:40:21;;;;;;;3.33;1.27;;;;;;;23.22;37.80;102085.91;3572189;40;20053;-62
2022/06/13 10:42:47;;;;;;;3.72;1.70;;;;;;;23.49;37.82;102081.50;3569022;40;20288;-62
2022/06/13 10:45:16;;;;;;;4.30;1.70;;;;;;;23.71;35.76;102086.66;3569233;40;20060;-62
2022/06/13 10:48:04;;;;;;;4.30;2.10;;;;;;;23.60;35.77;102090.44;3571434;40;20048;-63
2022/06/13 10:50:57;;;;;;;3.63;2.00;;;;;;;23.79;35.49;102081.31;3570347;40;20354;-63
2022/06/13 10:53:30;;;;;;;6.70;2.28;;;;;;;24.21;37.26;102080.81;3569439;40;20325;-63
2022/06/13 10:56:03;;;;;;;5.45;2.03;;;;;;;24.05;35.55;102080.59;3566750;40;20104;-64
2022/06/13 10:58:52;;;;;;;3.05;1.83;;;;;;;24.08;36.25;102077.56;3568058;40;20113;-63
2022/06/13 11:01:22;;;;;;;6.28;2.35;;;;;;;24.40;38.16;102077.06;3569549;40;20083;-63
2022/06/13 11:04:19;;;;;;;3.63;2.40;;;;;;;24.43;35.93;102084.19;3570091;40;20053;-64
2022/06/13 11:06:56;;;;;;;7.20;2.60;;;;;;;23.90;36.03;102074.75;3569363;40;20073;-63
2022/06/13 11:09:39;;;;;;;6.88;2.47;;;;;;;23.75;36.42;102084.47;3571306;40;20067;-64
2022/06/13 11:12:25;;;;;;;2.90;1.70;;;;;;;23.97;35.15;102088.72;3570411;40;20056;-64
2022/06/13 11:24:16;;;;;;;5.28;1.25;;;;;;;23.42;35.53;102099.59;3569717;40;20584;-63
2022/06/13 11:29:35;;;;;;;2.83;0.90;;;;;;;23.13;36.05;102073.06;3568266;40;20443;-64
2022/06/13 11:32:05;;;;;;;4.60;1.30;;;;;;;23.61;36.88;102105.88;3568153;40;20127;-64
2022/06/13 11:34:39;;;;;;;2.53;1.05;;;;;;;23.95;34.32;102086.16;3568769;40;20061;-63
2022/06/13 11:37:13;;;;;;;;;;;;;;;24.33;35.38;102101.56;3571120;40;20051;-63
2022/06/13 11:39:46;;;;;;;4.10;1.10;;;;;;;24.58;33.58;102093.63;3571660;40;19960;-63
2022/06/13 11:42:27;;;;;;;;;;;;;;;24.88;32.24;102099.75;3569214;40;20068;-64
2022/06/13 11:45:17;;;;;;;4.28;1.15;;;;;;;24.97;33.09;102087.81;3573608;40;19939;-63
2022/06/13 11:47:50;;;;;;;2.60;1.23;;;;;;;24.41;33.05;102075.19;3567349;40;20295;-64
2022/06/13 11:50:19;;;;;;;;;;;;;;;23.94;34.72;102094.53;3569853;40;20060;-64
2022/06/13 11:55:36;;;;;;;2.90;1.08;;;;;;;23.12;35.64;102101.50;3569378;40;20319;-63
2022/06/13 11:58:04;;;;;;;3.33;1.30;;;;;;;23.18;36.63;102103.66;3569994;40;20049;-63
2022/06/13 12:00:51;;;;;;;7.32;1.70;;;;;;;23.55;34.71;102097.38;3567437;40;20060;-63
2022/06/13 12:03:26;;;;;;;4.43;1.40;;;;;;;24.18;35.02;102097.59;3569626;40;20316;-63
2022/06/13 12:06:10;;;;;;;2.78;0.80;;;;;;;24.59;33.80;102095.34;3568835;40;20071;-66
2022/06/13 12:08:38;;;;;;;2.42;1.10;;;;;;;24.86;32.70;102101.78;3569924;40;20045;-66
2022/06/13 12:11:13;;;;;;;2.83;0.93;;;;;;;25.05;32.93;102098.84;3567884;40;20060;-66
2022/06/13 12:13:45;;;;;;;3.60;1.20;;;;;;;25.20;31.37;102100.06;3573482;40;20376;-67
2022/06/13 12:16:37;;;;;;;2.63;1.08;;;;;;;24.53;33.06;102091.31;3570254;40;20044;-68
2022/06/13 12:19:21;;;;;;;4.70;1.65;;;;;;;23.69;34.57;102107.94;3570135;40;20075;-66
2022/06/13 12:22:17;;;;;;;6.68;1.63;;;;;;;23.14;35.90;102113.19;3569873;40;20061;-66
2022/06/13 12:25:31;;;;;;;4.72;1.60;;;;;;;23.29;35.01;102119.97;3571466;40;20079;-66
2022/06/13 12:28:16;;;;;;;2.72;1.27;;;;;;;23.85;34.43;102116.41;3569765;40;20047;-66
2022/06/13 12:31:09;;;;;;;3.72;1.25;;;;;;;23.85;32.68;102075.22;3571907;40;20056;-66
2022/06/13 12:33:58;;;;;;;2.50;1.40;;;;;;;24.76;33.53;102124.72;3569860;40;20061;-66
2022/06/13 12:37:01;;;;;;;4.30;1.77;;;;;;;25.11;32.04;102127.63;3571492;40;21292;-66
2022/06/13 12:39:57;;;;;;;2.05;1.50;;;;;;;25.36;31.33;102125.97;3571473;40;20092;-67